createdAt,value
2023-05-05T00:01:24.257Z,60.18
2023-05-05T00:03:50.825Z,60.15
2023-05-05T00:06:17.405Z,60.77
2023-05-05T00:08:44.206Z,60.51
2023-05-05T00:11:10.673Z,60.87
2023-05-05T00:13:38.619Z,60.74
2023-05-05T00:16:05.919Z,60.95
2023-05-05T00:18:33.763Z,60.72
2023-05-05T00:21:00.171Z,61.21
2023-05-05T00:23:27.987Z,60.42
2023-05-05T00:25:54.753Z,60.91
2023-05-05T00:28:21.212Z,61.38
2023-05-05T00:30:47.818Z,61.43
2023-05-05T00:33:14.522Z,62.20
2023-05-05T00:35:41.066Z,62.00
2023-05-05T00:38:07.551Z,63.39
2023-05-05T00:40:33.983Z,63.35
2023-05-05T00:43:00.451Z,62.68
2023-05-05T00:45:27.508Z,63.13
2023-05-05T00:47:57.351Z,63.43
2023-05-05T00:50:29.265Z,63.27
2023-05-05T00:53:02.295Z,63.69
2023-05-05T00:55:30.124Z,63.75
2023-05-05T00:57:57.988Z,64.23
2023-05-05T01:00:25.018Z,64.66
2023-05-05T01:02:52.536Z,64.28
2023-05-05T01:05:21.668Z,65.05
2023-05-05T01:08:02.886Z,64.52
2023-05-05T01:10:45.293Z,64.62
2023-05-05T01:13:42.670Z,65.26
2023-05-05T01:16:18.261Z,65.33
2023-05-05T01:18:53.830Z,65.16
2023-05-05T01:21:33.685Z,65.52
2023-05-05T01:24:18.864Z,65.54
2023-05-05T01:27:45.332Z,65.99
2023-05-05T01:30:39.845Z,65.58
2023-05-05T01:33:09.987Z,66.36
2023-05-05T01:35:42.010Z,66.58
2023-05-05T01:38:14.993Z,66.43
2023-05-05T01:40:46.947Z,66.57
2023-05-05T01:43:18.215Z,66.82
2023-05-05T01:45:48.585Z,66.93
2023-05-05T01:48:18.878Z,67.11
2023-05-05T01:50:48.191Z,66.77
2023-05-05T01:53:17.607Z,66.88
2023-05-05T01:55:46.866Z,66.86
2023-05-05T01:58:16.231Z,66.53
2023-05-05T02:00:44.240Z,67.08
2023-05-05T02:03:13.807Z,67.03
2023-05-05T02:05:42.314Z,67.48
2023-05-05T02:08:11.008Z,67.51
2023-05-05T02:10:40.836Z,67.51
2023-05-05T02:13:12.437Z,68.00
2023-05-05T02:15:40.486Z,67.50
2023-05-05T02:18:07.587Z,67.82
2023-05-05T02:20:37.275Z,67.78
2023-05-05T02:23:05.739Z,67.82
2023-05-05T02:25:38.252Z,68.85
2023-05-05T02:28:11.147Z,68.87
2023-05-05T02:30:39.021Z,68.77
2023-05-05T02:33:11.238Z,68.46
2023-05-05T02:35:42.284Z,68.79
2023-05-05T02:38:17.622Z,68.88
2023-05-05T02:40:49.660Z,68.84
2023-05-05T02:43:19.549Z,68.55
2023-05-05T02:45:47.008Z,68.91
2023-05-05T02:48:14.930Z,68.97
2023-05-05T02:50:42.561Z,69.20
2023-05-05T02:53:26.796Z,69.58
2023-05-05T02:56:01.678Z,70.39
2023-05-05T02:58:46.337Z,70.02
2023-05-05T03:01:33.222Z,70.48
2023-05-05T03:04:06.086Z,70.31
2023-05-05T03:06:46.311Z,70.63
2023-05-05T03:09:26.333Z,70.45
2023-05-05T03:12:09.723Z,70.62
2023-05-05T03:14:48.928Z,70.87
2023-05-05T03:17:18.555Z,70.89
2023-05-05T03:19:46.666Z,71.27
2023-05-05T03:22:13.605Z,71.46
2023-05-05T03:24:50.007Z,71.32
2023-05-05T03:27:17.522Z,71.25
2023-05-05T03:29:44.199Z,70.97
2023-05-05T03:32:14.037Z,71.76
2023-05-05T03:34:41.617Z,71.58
2023-05-05T03:37:08.634Z,72.00
2023-05-05T03:39:36.599Z,72.40
2023-05-05T03:42:03.525Z,72.36
2023-05-05T03:44:32.406Z,71.82
2023-05-05T03:46:58.959Z,72.20
2023-05-05T03:49:26.722Z,73.13
2023-05-05T03:51:53.649Z,73.24
2023-05-05T03:54:20.117Z,72.83
2023-05-05T03:56:46.655Z,72.74
2023-05-05T03:59:13.165Z,73.06
2023-05-05T04:01:39.564Z,73.00
2023-05-05T04:04:06.107Z,73.32
2023-05-05T04:06:32.613Z,72.72
2023-05-05T04:08:59.120Z,72.97
2023-05-05T04:11:26.206Z,73.62
2023-05-05T04:13:53.638Z,73.61
2023-05-05T04:16:20.235Z,73.88
2023-05-05T04:18:47.546Z,73.62
2023-05-05T04:21:14.111Z,74.57
2023-05-05T04:23:40.917Z,74.47
2023-05-05T04:26:07.605Z,73.72
2023-05-05T04:28:34.210Z,74.38
2023-05-05T04:31:01.339Z,74.75
2023-05-05T04:33:30.672Z,75.19
2023-05-05T04:35:57.176Z,74.88
2023-05-05T04:38:24.015Z,73.92
2023-05-05T04:40:50.949Z,74.17
2023-05-05T04:43:17.490Z,74.31
2023-05-05T04:45:54.834Z,74.55
2023-05-05T04:48:24.198Z,73.81
2023-05-05T04:50:51.541Z,73.49
2023-05-05T04:53:18.194Z,72.54
2023-05-05T04:55:44.920Z,72.53
2023-05-05T04:58:11.417Z,72.86
2023-05-05T05:00:38.413Z,73.10
2023-05-05T05:03:05.009Z,72.48
2023-05-05T05:05:31.490Z,71.57
2023-05-05T05:07:58.112Z,71.52
2023-05-05T05:10:24.514Z,71.21
2023-05-05T05:12:51.268Z,71.01
2023-05-05T05:15:17.694Z,71.86
2023-05-05T05:17:44.650Z,71.15
2023-05-05T05:20:12.397Z,70.94
2023-05-05T05:22:39.278Z,71.02
2023-05-05T05:25:10.349Z,69.94
2023-05-05T05:27:36.966Z,70.05
2023-05-05T05:30:03.643Z,69.39
2023-05-05T05:32:31.952Z,69.27
2023-05-05T05:34:58.859Z,68.29
2023-05-05T05:37:28.904Z,68.19
2023-05-05T05:39:56.981Z,67.89
2023-05-05T05:42:25.921Z,68.72
2023-05-05T05:44:52.891Z,68.66
2023-05-05T05:47:19.472Z,68.01
2023-05-05T05:49:46.009Z,66.96
2023-05-05T05:52:12.616Z,67.21
2023-05-05T05:54:39.567Z,66.32
2023-05-05T05:57:07.139Z,65.42
2023-05-05T05:59:33.707Z,64.51
2023-05-05T06:02:00.378Z,64.07
2023-05-05T06:04:27.183Z,63.89
2023-05-05T06:06:54.584Z,64.39
2023-05-05T06:09:21.158Z,64.08
2023-05-05T06:11:47.594Z,63.49
2023-05-05T06:14:14.133Z,63.36
2023-05-05T06:16:40.684Z,63.09
2023-05-05T06:19:11.157Z,63.59
2023-05-05T06:21:38.264Z,63.08
2023-05-05T06:24:04.984Z,62.78
2023-05-05T06:26:32.387Z,62.51
2023-05-05T06:28:58.797Z,62.72
2023-05-05T06:31:25.631Z,63.15
2023-05-05T06:33:52.099Z,62.32
2023-05-05T06:36:18.609Z,62.74
2023-05-05T06:38:45.338Z,63.16
2023-05-05T06:41:11.900Z,61.89
2023-05-05T06:43:38.574Z,61.69
2023-05-05T06:46:10.023Z,62.33
2023-05-05T06:48:36.781Z,62.08
2023-05-05T06:51:04.835Z,61.73
2023-05-05T06:53:31.217Z,61.57
2023-05-05T06:55:58.009Z,61.21
2023-05-05T06:58:24.409Z,60.47
2023-05-05T07:00:50.843Z,59.95
2023-05-05T07:03:17.367Z,60.35
2023-05-05T07:05:44.095Z,60.47
2023-05-05T07:08:11.443Z,60.71
2023-05-05T07:10:38.151Z,60.38
2023-05-05T07:13:04.960Z,60.12
2023-05-05T07:15:31.502Z,59.94
2023-05-05T07:17:58.512Z,59.55
2023-05-05T07:20:25.350Z,59.57
2023-05-05T07:22:51.815Z,59.50
2023-05-05T07:25:18.399Z,59.03
2023-05-05T07:27:44.910Z,59.57
2023-05-05T07:30:15.389Z,59.25
2023-05-05T07:32:44.055Z,59.01
2023-05-05T07:35:10.762Z,59.04
2023-05-05T07:37:37.175Z,58.90
2023-05-05T07:40:04.152Z,58.55
2023-05-05T07:42:30.577Z,58.10
2023-05-05T07:44:57.017Z,56.68
2023-05-05T07:47:23.483Z,56.33
2023-05-05T07:49:49.890Z,54.30
2023-05-05T07:52:16.413Z,54.32
2023-05-05T07:54:42.849Z,55.05
2023-05-05T07:57:09.267Z,55.58
2023-05-05T07:59:35.925Z,54.96
2023-05-05T08:02:02.341Z,55.27
2023-05-05T08:04:28.810Z,55.29
2023-05-05T08:06:55.239Z,55.25
2023-05-05T08:09:21.721Z,55.27
2023-05-05T08:11:48.274Z,55.47
2023-05-05T08:14:15.349Z,55.52
2023-05-05T08:16:41.809Z,55.56
2023-05-05T08:19:21.065Z,55.15
2023-05-05T08:21:51.613Z,54.60
2023-05-05T08:24:18.066Z,54.56
2023-05-05T08:26:44.663Z,56.21
2023-05-05T08:29:11.549Z,56.64
2023-05-05T08:31:38.054Z,56.40
2023-05-05T08:34:06.012Z,56.56
2023-05-05T08:36:33.034Z,57.22
2023-05-05T08:38:59.810Z,58.86
2023-05-05T08:41:26.704Z,58.60
2023-05-05T08:43:53.223Z,58.33
2023-05-05T08:46:19.929Z,58.01
2023-05-05T08:48:48.408Z,57.57
2023-05-05T08:51:19.905Z,59.36
2023-05-05T08:54:02.039Z,60.55
2023-05-05T08:56:35.012Z,59.47
2023-05-05T08:59:03.184Z,58.23
2023-05-05T09:01:31.860Z,58.44
2023-05-05T09:03:59.486Z,56.94
2023-05-05T09:06:27.306Z,54.17
2023-05-05T09:08:54.446Z,55.04
2023-05-05T09:11:22.549Z,53.48
2023-05-05T09:13:49.634Z,52.51
2023-05-05T09:16:16.275Z,52.36
2023-05-05T09:18:43.006Z,52.15
2023-05-05T09:21:26.388Z,52.06
2023-05-05T09:24:09.632Z,52.62
2023-05-05T09:26:38.733Z,51.18
2023-05-05T09:29:06.028Z,51.62
2023-05-05T09:31:33.977Z,52.23
2023-05-05T09:34:01.178Z,51.46
2023-05-05T09:36:47.336Z,50.72
2023-05-05T09:39:17.933Z,51.54
2023-05-05T09:41:45.369Z,51.46
2023-05-05T09:44:13.094Z,50.92
2023-05-05T09:46:50.994Z,51.65
2023-05-05T09:49:20.079Z,52.31
2023-05-05T09:51:47.480Z,52.15
2023-05-05T09:54:22.932Z,52.14
2023-05-05T09:56:50.681Z,52.44
2023-05-05T09:59:17.059Z,53.58
2023-05-05T10:01:44.038Z,52.34
2023-05-05T10:04:28.497Z,52.63
2023-05-05T10:06:57.234Z,52.75
2023-05-05T10:09:27.512Z,53.06
2023-05-05T10:11:57.044Z,53.51
2023-05-05T10:14:52.415Z,52.72
2023-05-05T10:17:22.257Z,52.54
2023-05-05T10:19:52.144Z,53.11
2023-05-05T10:22:22.781Z,52.96
2023-05-05T10:25:11.829Z,52.67
2023-05-05T10:27:44.120Z,54.05
2023-05-05T10:30:34.244Z,54.75
2023-05-05T10:35:41.676Z,54.89
2023-05-05T10:38:12.849Z,55.90
2023-05-05T10:40:46.888Z,56.03
2023-05-05T10:43:14.397Z,55.68
2023-05-05T10:45:42.974Z,55.65
2023-05-05T10:48:21.048Z,54.70
2023-05-05T10:50:53.813Z,54.87
2023-05-05T10:53:28.000Z,55.21
2023-05-05T10:56:06.865Z,54.46
2023-05-05T10:58:55.394Z,53.80
2023-05-05T11:01:33.151Z,54.98
2023-05-05T11:04:23.325Z,53.64
2023-05-05T11:07:08.007Z,51.90
2023-05-05T11:09:42.079Z,51.99
2023-05-05T11:12:09.108Z,51.42
2023-05-05T11:14:35.692Z,51.62
2023-05-05T11:17:04.081Z,50.36
2023-05-05T11:19:42.708Z,49.17
2023-05-05T11:22:10.603Z,49.19
2023-05-05T11:24:39.553Z,48.99
2023-05-05T11:27:06.556Z,47.60
2023-05-05T11:30:08.061Z,48.55
2023-05-05T11:32:34.884Z,48.42
2023-05-05T11:35:03.776Z,48.77
2023-05-05T11:37:30.297Z,49.60
2023-05-05T11:40:22.026Z,48.76
2023-05-05T11:42:48.477Z,48.75
2023-05-05T11:45:22.919Z,49.56
2023-05-05T11:47:49.781Z,49.42
2023-05-05T11:50:18.749Z,49.44
2023-05-05T11:52:45.662Z,49.68
2023-05-05T11:55:12.161Z,50.31
2023-05-05T11:57:38.674Z,49.91
2023-05-05T12:00:10.401Z,51.16
2023-05-05T12:02:37.248Z,51.16
2023-05-05T12:05:04.079Z,52.04
2023-05-05T12:07:32.301Z,52.88
2023-05-05T12:09:59.471Z,51.57
2023-05-05T12:12:36.583Z,51.27
2023-05-05T12:15:03.793Z,52.55
2023-05-05T12:17:45.760Z,51.61
2023-05-05T12:20:13.312Z,50.85
2023-05-05T12:22:40.299Z,50.54
2023-05-05T12:25:08.185Z,50.50
2023-05-05T12:27:38.449Z,49.67
2023-05-05T12:30:16.580Z,49.38
2023-05-05T12:32:44.369Z,48.88
2023-05-05T12:35:12.109Z,48.78
2023-05-05T12:37:38.886Z,49.59
2023-05-05T12:40:06.477Z,49.19
2023-05-05T12:42:38.732Z,49.68
2023-05-05T12:45:05.744Z,49.69
2023-05-05T12:47:33.278Z,48.62
2023-05-05T12:50:00.636Z,49.00
2023-05-05T12:52:40.730Z,48.82
2023-05-05T12:55:07.957Z,48.17
2023-05-05T12:57:34.679Z,48.19
2023-05-05T13:00:13.558Z,48.19
2023-05-05T13:02:40.070Z,48.21
2023-05-05T13:05:07.157Z,49.61
2023-05-05T13:07:33.696Z,50.74
2023-05-05T13:10:09.087Z,50.83
2023-05-05T13:12:35.585Z,52.00
2023-05-05T13:15:03.980Z,50.30
2023-05-05T13:17:31.467Z,50.38
2023-05-05T13:19:59.226Z,51.01
2023-05-05T13:22:25.595Z,50.63
2023-05-05T13:24:52.956Z,49.47
2023-05-05T13:27:19.974Z,49.75
2023-05-05T13:29:46.688Z,49.33
2023-05-05T13:32:13.247Z,50.37
2023-05-05T13:34:39.724Z,49.20
2023-05-05T13:37:06.267Z,49.41
2023-05-05T13:39:32.720Z,49.92
2023-05-05T13:41:59.139Z,49.23
2023-05-05T13:44:25.594Z,50.35
2023-05-05T13:46:52.008Z,50.31
2023-05-05T13:49:18.586Z,49.91
2023-05-05T13:51:46.753Z,49.63
2023-05-05T13:54:13.477Z,50.43
2023-05-05T13:56:39.901Z,50.36
2023-05-05T13:59:06.378Z,49.71
2023-05-05T14:01:33.029Z,50.33
2023-05-05T14:03:59.777Z,51.42
2023-05-05T14:06:27.739Z,49.67
2023-05-05T14:08:54.143Z,49.82
2023-05-05T14:11:20.969Z,49.75
2023-05-05T14:13:47.956Z,49.73
2023-05-05T14:16:14.580Z,51.04
2023-05-05T14:18:41.072Z,51.23
2023-05-05T14:21:07.513Z,50.99
2023-05-05T14:23:34.021Z,50.72
2023-05-05T14:26:01.052Z,50.92
2023-05-05T14:28:27.497Z,51.75
2023-05-05T14:30:53.939Z,52.08
2023-05-05T14:33:20.416Z,52.34
2023-05-05T14:35:47.079Z,52.72
2023-05-05T14:38:13.614Z,53.42
2023-05-05T14:40:39.995Z,54.37
2023-05-05T14:43:06.594Z,53.46
2023-05-05T14:45:33.285Z,54.32
2023-05-05T14:47:59.735Z,54.24
2023-05-05T14:50:26.219Z,54.65
2023-05-05T14:52:52.662Z,54.68
2023-05-05T14:55:19.262Z,53.69
2023-05-05T14:57:45.821Z,53.65
2023-05-05T15:00:13.291Z,54.43
2023-05-05T15:02:39.860Z,54.57
2023-05-05T15:05:07.276Z,55.28
2023-05-05T15:07:33.850Z,56.23
2023-05-05T15:10:00.308Z,55.62
2023-05-05T15:12:27.866Z,55.81
2023-05-05T15:14:55.398Z,56.78
2023-05-05T15:17:21.946Z,57.10
2023-05-05T15:19:48.433Z,57.06
2023-05-05T15:22:15.006Z,57.65
2023-05-05T15:24:41.459Z,58.60
2023-05-05T15:27:08.194Z,58.69
2023-05-05T15:29:34.641Z,58.72
2023-05-05T15:32:01.950Z,59.41
2023-05-05T15:34:28.412Z,60.56
2023-05-05T15:36:55.174Z,60.45
2023-05-05T15:39:21.548Z,60.78
2023-05-05T15:41:48.012Z,61.52
2023-05-05T15:44:14.576Z,61.99
2023-05-05T15:46:41.120Z,61.70
2023-05-05T15:49:07.639Z,62.17
2023-05-05T15:51:34.102Z,62.76
2023-05-05T15:54:00.571Z,63.44
2023-05-05T15:56:27.497Z,64.79
2023-05-05T15:58:54.317Z,65.62
2023-05-05T16:01:20.979Z,66.54
2023-05-05T16:03:47.481Z,68.23
2023-05-05T16:06:14.413Z,70.30
2023-05-05T16:08:42.282Z,72.08
2023-05-05T16:11:09.484Z,74.38
2023-05-05T16:13:35.876Z,79.02
2023-05-05T16:16:03.588Z,85.06
2023-05-05T16:18:30.034Z,86.66
2023-05-05T16:20:56.398Z,91.13
2023-05-05T16:23:22.892Z,91.78
2023-05-05T16:25:49.365Z,95.55
2023-05-05T16:28:15.897Z,96.16
2023-05-05T16:30:43.219Z,97.98
2023-05-05T16:33:10.023Z,97.46
2023-05-05T16:35:36.606Z,98.23
2023-05-05T16:38:03.577Z,100.00
2023-05-05T16:40:30.065Z,100.00
2023-05-05T16:42:59.234Z,100.00
2023-05-05T16:45:25.657Z,100.00
2023-05-05T16:47:52.736Z,100.00
2023-05-05T16:50:19.343Z,100.00
2023-05-05T16:52:45.935Z,100.00
2023-05-05T16:55:12.763Z,100.00
2023-05-05T16:57:39.228Z,100.00
2023-05-05T17:00:06.853Z,100.00
2023-05-05T17:04:59.808Z,100.00
2023-05-05T17:07:26.322Z,100.00
2023-05-05T17:09:52.715Z,100.00
2023-05-05T17:12:19.180Z,100.00
2023-05-05T17:14:45.995Z,100.00
2023-05-05T17:17:12.930Z,100.00
2023-05-05T17:19:39.499Z,100.00
2023-05-05T17:22:06.020Z,100.00
2023-05-05T17:24:32.493Z,100.00
2023-05-05T17:27:00.054Z,100.00
2023-05-05T17:29:27.758Z,100.00
2023-05-05T17:31:55.216Z,100.00
2023-05-05T17:34:21.954Z,100.00
2023-05-05T17:36:48.369Z,100.00
2023-05-05T17:39:14.986Z,100.00
2023-05-05T17:41:42.398Z,100.00
2023-05-05T17:44:08.800Z,100.00
2023-05-05T17:46:35.366Z,100.00
2023-05-05T17:49:02.699Z,100.00
2023-05-05T17:51:29.146Z,100.00
2023-05-05T17:53:55.670Z,100.00
2023-05-05T17:56:22.255Z,100.00
2023-05-05T17:58:48.944Z,100.00
2023-05-05T18:01:26.318Z,100.00
2023-05-05T18:03:52.885Z,100.00
2023-05-05T18:06:19.485Z,100.00
2023-05-05T18:08:46.571Z,100.00
2023-05-05T18:11:13.252Z,100.00
2023-05-05T18:13:39.877Z,100.00
2023-05-05T18:16:06.744Z,100.00
2023-05-05T18:18:33.312Z,100.00
2023-05-05T18:20:59.927Z,100.00
2023-05-05T18:23:26.645Z,100.00
2023-05-05T18:25:53.100Z,100.00
2023-05-05T18:28:20.262Z,100.00
2023-05-05T18:30:46.727Z,100.00
2023-05-05T18:33:13.508Z,100.00
2023-05-05T18:35:39.976Z,100.00
2023-05-05T18:38:06.482Z,100.00
2023-05-05T18:40:32.950Z,100.00
2023-05-05T18:42:59.479Z,100.00
2023-05-05T18:45:25.917Z,100.00
2023-05-05T18:47:52.412Z,100.00
2023-05-05T18:50:18.998Z,100.00
2023-05-05T18:52:45.714Z,100.00
2023-05-05T18:55:12.632Z,100.00
2023-05-05T18:57:39.172Z,100.00
2023-05-05T19:00:06.735Z,100.00
2023-05-05T19:02:33.266Z,100.00
2023-05-05T19:04:59.803Z,100.00
2023-05-05T19:07:35.101Z,100.00
2023-05-05T19:10:04.382Z,100.00
2023-05-05T19:12:30.819Z,100.00
2023-05-05T19:14:57.630Z,100.00
2023-05-05T19:17:25.048Z,100.00
2023-05-05T19:19:51.555Z,100.00
2023-05-05T19:22:18.082Z,100.00
2023-05-05T19:24:44.841Z,100.00
2023-05-05T19:27:16.201Z,100.00
2023-05-05T19:29:43.621Z,100.00
2023-05-05T19:32:10.144Z,100.00
2023-05-05T19:34:36.932Z,100.00
2023-05-05T19:37:03.346Z,100.00
2023-05-05T19:39:29.782Z,100.00
2023-05-05T19:41:56.473Z,100.00
2023-05-05T19:44:23.237Z,100.00
2023-05-05T19:46:49.998Z,100.00
2023-05-05T19:49:16.454Z,100.00
2023-05-05T19:51:43.745Z,100.00
2023-05-05T19:54:10.299Z,100.00
2023-05-05T19:56:36.749Z,100.00
2023-05-05T19:59:05.225Z,100.00
2023-05-05T20:01:33.028Z,100.00
2023-05-05T20:03:59.863Z,100.00
2023-05-05T20:06:26.898Z,100.00
2023-05-05T20:08:54.690Z,100.00
2023-05-05T20:11:21.438Z,100.00
2023-05-05T20:13:49.121Z,100.00
2023-05-05T20:16:15.904Z,100.00
2023-05-05T20:18:42.448Z,100.00
2023-05-05T20:21:08.865Z,100.00
2023-05-05T20:23:36.519Z,100.00
2023-05-05T20:26:03.048Z,100.00
2023-05-05T20:28:31.655Z,100.00
2023-05-05T20:30:58.229Z,100.00
2023-05-05T20:33:24.715Z,100.00
2023-05-05T20:35:51.115Z,100.00
2023-05-05T20:38:17.888Z,100.00
2023-05-05T20:40:44.505Z,100.00
2023-05-05T20:43:11.222Z,100.00
2023-05-05T20:45:37.808Z,100.00
2023-05-05T20:48:05.072Z,100.00
2023-05-05T20:50:31.743Z,100.00
2023-05-05T20:52:58.716Z,100.00
2023-05-05T20:55:25.639Z,100.00
2023-05-05T20:57:52.032Z,100.00
2023-05-05T21:00:18.533Z,100.00
2023-05-05T21:02:45.236Z,100.00
2023-05-05T21:05:11.793Z,100.00
2023-05-05T21:07:38.552Z,100.00
2023-05-05T21:10:05.712Z,100.00
2023-05-05T21:12:33.863Z,100.00
2023-05-05T21:15:00.671Z,100.00
2023-05-05T21:17:29.618Z,100.00
2023-05-05T21:19:56.947Z,100.00
2023-05-05T21:22:23.642Z,100.00
2023-05-05T21:24:50.753Z,100.00
2023-05-05T21:27:17.731Z,100.00
2023-05-05T21:29:44.242Z,100.00
2023-05-05T21:32:11.679Z,100.00
2023-05-05T21:34:39.072Z,100.00
2023-05-05T21:37:06.087Z,100.00
2023-05-05T21:39:33.164Z,100.00
2023-05-05T21:42:01.046Z,100.00
2023-05-05T21:44:28.151Z,100.00
2023-05-05T21:46:55.378Z,100.00
2023-05-05T21:49:21.861Z,100.00
2023-05-05T21:51:48.308Z,100.00
2023-05-05T21:54:14.878Z,100.00
2023-05-05T21:56:41.259Z,100.00
2023-05-05T21:59:07.700Z,100.00
2023-05-05T22:01:34.149Z,100.00
2023-05-05T22:04:00.687Z,100.00
2023-05-05T22:06:27.229Z,100.00
2023-05-05T22:08:53.647Z,100.00
2023-05-05T22:11:20.338Z,100.00
2023-05-05T22:14:11.533Z,100.00
2023-05-05T22:16:38.073Z,100.00
2023-05-05T22:19:04.554Z,100.00
2023-05-05T22:21:31.492Z,100.00
2023-05-05T22:23:57.881Z,100.00
2023-05-05T22:26:24.343Z,100.00
2023-05-05T22:28:51.014Z,100.00
2023-05-05T22:31:17.698Z,100.00
2023-05-05T22:33:44.151Z,100.00
2023-05-05T22:36:11.498Z,100.00
2023-05-05T22:38:37.924Z,100.00
2023-05-05T22:41:06.362Z,100.00
2023-05-05T22:43:32.826Z,100.00
2023-05-05T22:45:59.210Z,100.00
2023-05-05T22:48:26.210Z,100.00
2023-05-05T22:50:52.625Z,100.00
2023-05-05T22:53:19.132Z,100.00
2023-05-05T22:55:45.899Z,100.00
2023-05-05T22:58:12.447Z,100.00
2023-05-05T23:00:38.836Z,100.00
2023-05-05T23:03:05.332Z,100.00
2023-05-05T23:05:31.920Z,100.00
2023-05-05T23:08:01.021Z,100.00
2023-05-05T23:10:28.911Z,100.00
2023-05-05T23:12:55.600Z,100.00
2023-05-05T23:15:22.692Z,100.00
2023-05-05T23:17:49.260Z,100.00
2023-05-05T23:20:16.236Z,100.00
2023-05-05T23:22:42.696Z,100.00
2023-05-05T23:25:09.430Z,100.00
2023-05-05T23:27:38.982Z,100.00
2023-05-05T23:30:07.300Z,100.00
2023-05-05T23:32:33.864Z,100.00
2023-05-05T23:35:00.294Z,100.00
2023-05-05T23:37:27.877Z,100.00
2023-05-05T23:39:54.454Z,100.00
2023-05-05T23:42:21.051Z,100.00
2023-05-05T23:44:47.759Z,100.00
2023-05-05T23:47:14.183Z,100.00
2023-05-05T23:49:40.657Z,100.00
2023-05-05T23:52:07.067Z,100.00
2023-05-05T23:54:33.480Z,100.00
2023-05-05T23:57:00.237Z,100.00
2023-05-05T23:59:27.178Z,100.00
